createdAt,value
2023-04-12T00:00:46.313Z,9.48
2023-04-12T00:03:21.339Z,9.45
2023-04-12T00:05:54.663Z,9.43
2023-04-12T00:08:33.247Z,9.41
2023-04-12T00:11:02.219Z,9.40
2023-04-12T00:13:30.566Z,9.36
2023-04-12T00:16:00.857Z,9.31
2023-04-12T00:18:29.753Z,9.26
2023-04-12T00:20:57.626Z,9.20
2023-04-12T00:23:28.853Z,9.16
2023-04-12T00:25:57.368Z,9.13
2023-04-12T00:28:25.195Z,9.08
2023-04-12T00:30:53.730Z,9.05
2023-04-12T00:33:22.106Z,9.02
2023-04-12T00:35:49.931Z,8.97
2023-04-12T00:38:18.638Z,8.93
2023-04-12T00:40:46.709Z,8.91
2023-04-12T00:43:18.873Z,8.88
2023-04-12T00:45:47.777Z,8.84
2023-04-12T00:48:20.880Z,8.79
2023-04-12T00:50:50.137Z,8.74
2023-04-12T00:53:18.055Z,8.73
2023-04-12T00:55:46.663Z,8.70
2023-04-12T00:58:14.807Z,8.68
2023-04-12T01:00:50.297Z,8.64
2023-04-12T01:03:23.390Z,8.60
2023-04-12T01:06:09.744Z,8.56
2023-04-12T01:08:55.890Z,8.54
2023-04-12T01:11:31.958Z,8.53
2023-04-12T01:14:11.488Z,8.53
2023-04-12T01:16:46.215Z,8.51
2023-04-12T01:19:34.176Z,8.50
2023-04-12T01:22:16.343Z,8.48
2023-04-12T01:25:14.214Z,8.44
2023-04-12T01:27:55.641Z,8.40
2023-04-12T01:30:23.473Z,8.37
2023-04-12T01:32:51.945Z,8.35
2023-04-12T01:35:21.224Z,8.33
2023-04-12T01:37:49.202Z,8.32
2023-04-12T01:40:19.569Z,8.29
2023-04-12T01:42:48.006Z,8.28
2023-04-12T01:45:19.065Z,8.25
2023-04-12T01:47:47.637Z,8.23
2023-04-12T01:50:18.567Z,8.19
2023-04-12T01:52:52.484Z,8.17
2023-04-12T01:55:21.703Z,8.16
2023-04-12T01:57:49.534Z,8.15
2023-04-12T02:00:17.798Z,8.13
2023-04-12T02:02:46.004Z,8.12
2023-04-12T02:05:14.376Z,8.08
2023-04-12T02:07:43.068Z,8.03
2023-04-12T02:10:16.005Z,8.01
2023-04-12T02:12:45.050Z,8.00
2023-04-12T02:15:13.268Z,7.96
2023-04-12T02:17:46.295Z,7.94
2023-04-12T02:20:17.990Z,7.90
2023-04-12T02:22:46.591Z,7.87
2023-04-12T02:25:15.484Z,7.85
2023-04-12T02:27:45.165Z,7.82
2023-04-12T02:30:13.783Z,7.82
2023-04-12T02:32:45.548Z,7.78
2023-04-12T02:35:20.190Z,7.77
2023-04-12T02:37:51.550Z,7.77
2023-04-12T02:40:19.785Z,7.77
2023-04-12T02:42:47.850Z,7.77
2023-04-12T02:45:16.034Z,7.77
2023-04-12T02:47:44.036Z,7.75
2023-04-12T02:50:11.920Z,7.75
2023-04-12T02:52:49.705Z,7.75
2023-04-12T02:55:17.665Z,7.75
2023-04-12T02:57:45.976Z,7.76
2023-04-12T03:00:15.801Z,7.77
2023-04-12T03:02:53.352Z,7.77
2023-04-12T03:05:24.905Z,7.77
2023-04-12T03:07:54.819Z,7.79
2023-04-12T03:10:27.456Z,7.79
2023-04-12T03:13:05.232Z,7.79
2023-04-12T03:15:47.770Z,7.77
2023-04-12T03:18:15.886Z,7.77
2023-04-12T03:20:47.781Z,7.78
2023-04-12T03:23:18.947Z,7.77
2023-04-12T03:25:50.245Z,7.76
2023-04-12T03:28:39.148Z,7.75
2023-04-12T03:31:07.955Z,7.73
2023-04-12T03:33:44.142Z,7.72
2023-04-12T03:36:23.974Z,7.72
2023-04-12T03:38:56.261Z,7.73
2023-04-12T03:41:24.195Z,7.73
2023-04-12T03:43:52.228Z,7.72
2023-04-12T03:46:21.030Z,7.72
2023-04-12T03:48:55.847Z,7.72
2023-04-12T03:51:26.983Z,7.74
2023-04-12T03:54:02.700Z,7.74
2023-04-12T03:56:31.960Z,7.75
2023-04-12T03:59:01.631Z,7.77
2023-04-12T04:01:29.617Z,7.78
2023-04-12T04:03:58.261Z,7.78
2023-04-12T04:06:29.942Z,7.77
2023-04-12T04:08:57.848Z,7.77
2023-04-12T04:11:26.957Z,7.77
2023-04-12T04:13:59.102Z,7.76
2023-04-12T04:16:28.910Z,7.75
2023-04-12T04:18:56.949Z,7.76
2023-04-12T04:21:25.017Z,7.76
2023-04-12T04:23:58.688Z,7.75
2023-04-12T04:26:33.583Z,7.77
2023-04-12T04:29:08.610Z,7.76
2023-04-12T04:31:38.740Z,7.76
2023-04-12T04:34:09.458Z,7.74
2023-04-12T04:36:42.987Z,7.72
2023-04-12T04:39:15.852Z,7.70
2023-04-12T04:41:46.798Z,7.69
2023-04-12T04:44:21.839Z,7.68
2023-04-12T04:46:54.239Z,7.67
2023-04-12T04:49:26.439Z,7.67
2023-04-12T04:51:54.551Z,7.65
2023-04-12T04:54:22.990Z,7.63
2023-04-12T04:56:54.606Z,7.64
2023-04-12T04:59:23.975Z,7.64
2023-04-12T05:02:01.517Z,7.63
2023-04-12T05:04:31.216Z,7.64
2023-04-12T05:06:59.255Z,7.66
2023-04-12T05:09:27.424Z,7.66
2023-04-12T05:12:02.190Z,7.67
2023-04-12T05:14:43.403Z,7.67
2023-04-12T05:17:12.886Z,7.67
2023-04-12T05:19:46.499Z,7.66
2023-04-12T05:22:14.675Z,7.67
2023-04-12T05:24:43.025Z,7.67
2023-04-12T05:27:11.613Z,7.67
2023-04-12T05:29:39.993Z,7.64
2023-04-12T05:32:13.260Z,7.62
2023-04-12T05:34:42.331Z,7.62
2023-04-12T05:37:10.770Z,7.64
2023-04-12T05:39:39.361Z,7.68
2023-04-12T05:42:09.037Z,7.71
2023-04-12T05:44:38.607Z,7.74
2023-04-12T05:47:12.621Z,7.75
2023-04-12T05:49:41.307Z,7.76
2023-04-12T05:52:12.781Z,7.78
2023-04-12T05:54:42.990Z,7.79
2023-04-12T05:57:15.851Z,7.78
2023-04-12T05:59:47.591Z,7.78
2023-04-12T06:02:16.663Z,7.77
2023-04-12T06:04:50.705Z,7.78
2023-04-12T06:07:21.269Z,7.80
2023-04-12T06:09:50.011Z,7.81
2023-04-12T06:12:18.714Z,7.81
2023-04-12T06:14:48.057Z,7.82
2023-04-12T06:17:16.162Z,7.84
2023-04-12T06:19:50.323Z,7.86
2023-04-12T06:22:19.326Z,7.86
2023-04-12T06:24:47.932Z,7.87
2023-04-12T06:27:16.284Z,7.87
2023-04-12T06:29:44.648Z,7.87
2023-04-12T06:32:12.511Z,7.88
2023-04-12T06:34:42.646Z,7.90
2023-04-12T06:37:14.397Z,7.91
2023-04-12T06:39:42.673Z,7.92
2023-04-12T06:42:13.199Z,7.94
2023-04-12T06:44:42.355Z,7.96
2023-04-12T06:47:10.333Z,7.96
2023-04-12T06:49:40.368Z,7.98
2023-04-12T06:52:08.195Z,7.99
2023-04-12T06:54:39.512Z,8.00
2023-04-12T06:57:11.860Z,8.01
2023-04-12T06:59:45.983Z,8.02
2023-04-12T07:02:14.305Z,8.03
2023-04-12T07:04:42.303Z,8.02
2023-04-12T07:07:16.684Z,8.03
2023-04-12T07:09:48.059Z,8.03
2023-04-12T07:12:16.284Z,8.03
2023-04-12T07:14:50.384Z,8.05
2023-04-12T07:17:18.731Z,8.06
2023-04-12T07:19:46.795Z,8.06
2023-04-12T07:22:26.531Z,8.08
2023-04-12T07:24:54.649Z,8.10
2023-04-12T07:27:22.621Z,8.12
2023-04-12T07:29:53.353Z,8.14
2023-04-12T07:32:22.966Z,8.15
2023-04-12T07:34:53.226Z,8.15
2023-04-12T07:37:21.287Z,8.16
2023-04-12T07:39:49.429Z,8.18
2023-04-12T07:42:21.983Z,8.20
2023-04-12T07:44:50.768Z,8.22
2023-04-12T07:47:22.975Z,8.21
2023-04-12T07:49:51.098Z,8.23
2023-04-12T07:52:18.991Z,8.24
2023-04-12T07:54:48.077Z,8.25
2023-04-12T07:57:16.986Z,8.27
2023-04-12T07:59:44.926Z,8.28
2023-04-12T08:02:12.986Z,8.30
2023-04-12T08:04:44.438Z,8.32
2023-04-12T08:07:12.452Z,8.33
2023-04-12T08:09:43.929Z,8.34
2023-04-12T08:12:11.926Z,8.37
2023-04-12T08:14:46.250Z,8.38
2023-04-12T08:17:15.476Z,8.42
2023-04-12T08:19:43.384Z,8.43
2023-04-12T08:22:19.903Z,8.43
2023-04-12T08:24:51.848Z,8.45
2023-04-12T08:27:19.692Z,8.48
2023-04-12T08:29:47.512Z,8.49
2023-04-12T08:32:16.192Z,8.51
2023-04-12T08:34:46.071Z,8.54
2023-04-12T08:37:21.345Z,8.56
2023-04-12T08:39:49.138Z,8.57
2023-04-12T08:42:17.155Z,8.59
2023-04-12T08:44:45.386Z,8.62
2023-04-12T08:47:13.287Z,8.62
2023-04-12T08:49:41.209Z,8.64
2023-04-12T08:52:09.773Z,8.67
2023-04-12T08:54:37.548Z,8.69
2023-04-12T08:57:08.609Z,8.71
2023-04-12T08:59:39.930Z,8.71
2023-04-12T09:02:08.399Z,8.74
2023-04-12T09:04:47.581Z,8.78
2023-04-12T09:07:16.250Z,8.82
2023-04-12T09:09:44.522Z,8.82
2023-04-12T09:12:14.399Z,8.80
2023-04-12T09:14:44.898Z,8.79
2023-04-12T09:17:26.658Z,8.80
2023-04-12T09:19:56.406Z,8.82
2023-04-12T09:22:37.677Z,8.85
2023-04-12T09:25:06.052Z,8.86
2023-04-12T09:27:52.104Z,8.89
2023-04-12T09:30:20.484Z,8.92
2023-04-12T09:33:12.730Z,8.96
2023-04-12T09:35:42.972Z,8.98
2023-04-12T09:38:11.059Z,8.99
2023-04-12T09:40:40.506Z,9.02
2023-04-12T09:43:08.690Z,9.04
2023-04-12T09:45:39.020Z,9.06
2023-04-12T09:48:07.404Z,9.07
2023-04-12T09:50:35.687Z,9.12
2023-04-12T09:53:05.125Z,9.15
2023-04-12T09:55:33.409Z,9.16
2023-04-12T09:58:04.003Z,9.15
2023-04-12T10:00:34.584Z,9.15
2023-04-12T10:03:04.566Z,9.16
2023-04-12T10:05:32.757Z,9.15
2023-04-12T10:08:01.239Z,9.17
2023-04-12T10:10:33.904Z,9.19
2023-04-12T10:13:02.192Z,9.23
2023-04-12T10:15:36.872Z,9.25
2023-04-12T10:18:07.377Z,9.26
2023-04-12T10:20:35.528Z,9.27
2023-04-12T10:23:05.576Z,9.28
2023-04-12T10:25:34.611Z,9.28
2023-04-12T10:28:21.806Z,9.29
2023-04-12T10:30:57.976Z,9.32
2023-04-12T10:33:33.183Z,9.29
2023-04-12T10:36:11.267Z,9.26
2023-04-12T10:38:51.688Z,9.27
2023-04-12T10:41:20.857Z,9.28
2023-04-12T10:43:52.481Z,9.30
2023-04-12T10:46:41.019Z,9.30
2023-04-12T10:49:10.649Z,9.28
2023-04-12T10:52:09.151Z,9.28
2023-04-12T10:54:37.439Z,9.29
2023-04-12T10:57:07.179Z,9.29
2023-04-12T10:59:56.777Z,9.29
2023-04-12T11:02:25.467Z,9.29
2023-04-12T11:05:11.835Z,9.29
2023-04-12T11:08:06.747Z,9.29
2023-04-12T11:10:46.792Z,9.28
2023-04-12T11:13:20.531Z,9.29
2023-04-12T11:15:58.202Z,9.31
2023-04-12T11:18:27.674Z,9.31
2023-04-12T11:20:57.826Z,9.30
2023-04-12T11:23:32.930Z,9.30
2023-04-12T11:26:01.497Z,9.30
2023-04-12T11:28:32.485Z,9.31
2023-04-12T11:31:06.550Z,9.30
2023-04-12T11:33:36.147Z,9.28
2023-04-12T11:36:08.750Z,9.29
2023-04-12T11:38:38.150Z,9.31
2023-04-12T11:41:07.737Z,9.35
2023-04-12T11:43:36.373Z,9.39
2023-04-12T11:46:04.881Z,9.43
2023-04-12T11:48:33.301Z,9.46
2023-04-12T11:51:11.045Z,9.48
2023-04-12T11:53:39.574Z,9.49
2023-04-12T11:56:08.384Z,9.51
2023-04-12T11:58:36.357Z,9.54
2023-04-12T12:01:04.807Z,9.53
2023-04-12T12:03:35.428Z,9.54
2023-04-12T12:06:04.317Z,9.56
2023-04-12T12:08:32.489Z,9.56
2023-04-12T12:11:07.690Z,9.57
2023-04-12T12:13:52.941Z,9.56
2023-04-12T12:16:25.547Z,9.56
2023-04-12T12:18:54.453Z,9.56
2023-04-12T12:21:23.356Z,9.58
2023-04-12T12:23:51.580Z,9.58
2023-04-12T12:26:28.350Z,9.61
2023-04-12T12:28:57.371Z,9.64
2023-04-12T12:31:28.583Z,9.65
2023-04-12T12:33:58.311Z,9.64
2023-04-12T12:36:33.077Z,9.66
2023-04-12T12:39:10.527Z,9.68
2023-04-12T12:41:39.408Z,9.70
2023-04-12T12:44:08.384Z,9.70
2023-04-12T12:46:52.094Z,9.69
2023-04-12T12:49:23.628Z,9.70
2023-04-12T12:51:52.199Z,9.71
2023-04-12T12:54:38.830Z,9.71
2023-04-12T12:57:08.092Z,9.72
2023-04-12T12:59:36.453Z,9.73
2023-04-12T13:02:05.586Z,9.74
2023-04-12T13:04:34.963Z,9.74
2023-04-12T13:07:03.277Z,9.76
2023-04-12T13:09:31.691Z,9.76
2023-04-12T13:12:04.292Z,9.76
2023-04-12T13:14:33.094Z,9.75
2023-04-12T13:17:01.655Z,9.75
2023-04-12T13:19:37.111Z,9.77
2023-04-12T13:22:07.427Z,9.78
2023-04-12T13:24:35.694Z,9.78
2023-04-12T13:27:04.958Z,9.78
2023-04-12T13:29:38.878Z,9.77
2023-04-12T13:32:07.311Z,9.79
2023-04-12T13:34:35.906Z,9.81
2023-04-12T13:37:04.050Z,9.84
2023-04-12T13:39:33.326Z,9.85
2023-04-12T13:42:02.396Z,9.86
2023-04-12T13:44:30.542Z,9.87
2023-04-12T13:46:58.585Z,9.87
2023-04-12T13:49:26.654Z,9.87
2023-04-12T13:51:55.929Z,9.90
2023-04-12T13:54:24.364Z,9.93
2023-04-12T13:56:53.000Z,9.93
2023-04-12T13:59:21.347Z,9.93
2023-04-12T14:01:49.915Z,9.95
2023-04-12T14:04:18.129Z,9.97
2023-04-12T14:06:46.822Z,9.98
2023-04-12T14:09:31.798Z,9.97
2023-04-12T14:12:01.714Z,9.99
2023-04-12T14:14:30.099Z,10.00
2023-04-12T14:17:02.041Z,9.99
2023-04-12T14:19:31.137Z,9.99
2023-04-12T14:21:59.161Z,10.02
2023-04-12T14:24:31.928Z,10.04
2023-04-12T14:27:01.222Z,10.06
2023-04-12T14:29:29.698Z,10.07
2023-04-12T14:32:01.257Z,10.10
2023-04-12T14:34:31.176Z,10.13
2023-04-12T14:37:00.399Z,10.15
2023-04-12T14:39:28.744Z,10.16
2023-04-12T14:41:57.219Z,10.16
2023-04-12T14:44:26.375Z,10.17
2023-04-12T14:46:55.646Z,10.18
2023-04-12T14:49:24.227Z,10.21
2023-04-12T14:51:54.154Z,10.19
2023-04-12T14:54:22.302Z,10.21
2023-04-12T14:56:55.314Z,10.23
2023-04-12T14:59:32.711Z,10.24
2023-04-12T15:02:01.942Z,10.26
2023-04-12T15:04:30.488Z,10.28
2023-04-12T15:07:04.751Z,10.29
2023-04-12T15:09:35.087Z,10.28
2023-04-12T15:12:03.159Z,10.27
2023-04-12T15:14:34.946Z,10.30
2023-04-12T15:17:04.355Z,10.33
2023-04-12T15:19:32.638Z,10.36
2023-04-12T15:22:00.811Z,10.39
2023-04-12T15:24:38.476Z,10.42
2023-04-12T15:27:07.837Z,10.45
2023-04-12T15:29:35.959Z,10.48
2023-04-12T15:32:04.297Z,10.50
2023-04-12T15:34:34.105Z,10.52
2023-04-12T15:37:02.746Z,10.53
2023-04-12T15:39:36.197Z,10.53
2023-04-12T15:42:05.458Z,10.54
2023-04-12T15:44:34.210Z,10.56
2023-04-12T15:47:10.997Z,10.56
2023-04-12T15:49:40.329Z,10.57
2023-04-12T15:52:08.478Z,10.58
2023-04-12T15:54:43.650Z,10.58
2023-04-12T15:57:12.511Z,10.60
2023-04-12T15:59:40.843Z,10.64
2023-04-12T16:02:10.319Z,10.66
2023-04-12T16:04:39.491Z,10.68
2023-04-12T16:07:07.937Z,10.69
2023-04-12T16:09:38.774Z,10.70
2023-04-12T16:12:07.548Z,10.71
2023-04-12T16:14:36.846Z,10.71
2023-04-12T16:17:08.620Z,10.72
2023-04-12T16:19:37.731Z,10.72
2023-04-12T16:22:06.378Z,10.72
2023-04-12T16:24:37.564Z,10.73
2023-04-12T16:27:07.257Z,10.73
2023-04-12T16:29:35.391Z,10.75
2023-04-12T16:32:05.307Z,10.75
2023-04-12T16:34:33.810Z,10.75
2023-04-12T16:37:02.025Z,10.75
2023-04-12T16:39:32.302Z,10.75
2023-04-12T16:42:02.945Z,10.73
2023-04-12T16:44:31.251Z,10.73
2023-04-12T16:47:02.137Z,10.73
2023-04-12T16:49:32.209Z,10.72
2023-04-12T16:52:01.473Z,10.70
2023-04-12T16:54:33.834Z,10.68
2023-04-12T16:57:02.087Z,10.67
2023-04-12T16:59:32.261Z,10.67
2023-04-12T17:02:01.312Z,10.67
2023-04-12T17:04:30.322Z,10.67
2023-04-12T17:06:59.326Z,10.68
2023-04-12T17:09:28.120Z,10.67
2023-04-12T17:11:56.740Z,10.67
2023-04-12T17:14:25.143Z,10.65
2023-04-12T17:16:58.603Z,10.62
2023-04-12T17:19:30.033Z,10.59
2023-04-12T17:21:58.391Z,10.57
2023-04-12T17:24:29.204Z,10.56
2023-04-12T17:26:59.302Z,10.55
2023-04-12T17:29:28.105Z,10.53
2023-04-12T17:31:58.056Z,10.51
2023-04-12T17:34:26.265Z,10.50
2023-04-12T17:36:55.325Z,10.48
2023-04-12T17:39:26.188Z,10.46
2023-04-12T17:41:54.532Z,10.45
2023-04-12T17:44:22.865Z,10.45
2023-04-12T17:46:51.519Z,10.45
2023-04-12T17:49:20.195Z,10.43
2023-04-12T17:51:48.235Z,10.41
2023-04-12T17:54:16.950Z,10.40
2023-04-12T17:56:45.354Z,10.39
2023-04-12T17:59:13.752Z,10.39
2023-04-12T18:01:41.895Z,10.38
2023-04-12T18:04:11.285Z,10.38
2023-04-12T18:06:40.078Z,10.38
2023-04-12T18:09:12.762Z,10.38
2023-04-12T18:11:42.548Z,10.36
2023-04-12T18:14:10.981Z,10.34
2023-04-12T18:16:40.555Z,10.31
2023-04-12T18:19:09.948Z,10.23
2023-04-12T18:21:38.102Z,10.18
2023-04-12T18:24:07.012Z,10.15
2023-04-12T18:26:35.540Z,10.13
2023-04-12T18:29:03.586Z,10.10
2023-04-12T18:31:32.127Z,10.05
2023-04-12T18:34:00.612Z,10.01
2023-04-12T18:36:28.716Z,9.99
2023-04-12T18:38:57.151Z,9.96
2023-04-12T18:41:26.373Z,9.94
2023-04-12T18:43:54.589Z,9.91
2023-04-12T18:46:22.593Z,9.89
2023-04-12T18:48:54.574Z,9.85
2023-04-12T18:51:23.496Z,9.83
2023-04-12T18:53:51.719Z,9.82
2023-04-12T18:56:24.671Z,9.78
2023-04-12T18:58:55.597Z,9.75
2023-04-12T19:01:25.211Z,9.75
2023-04-12T19:03:55.594Z,9.76
2023-04-12T19:06:24.031Z,9.72
2023-04-12T19:08:52.193Z,9.65
2023-04-12T19:11:24.660Z,9.55
2023-04-12T19:13:53.607Z,9.47
2023-04-12T19:16:22.805Z,9.39
2023-04-12T19:18:55.652Z,9.32
2023-04-12T19:21:24.426Z,9.26
2023-04-12T19:23:53.201Z,9.18
2023-04-12T19:26:23.030Z,9.12
2023-04-12T19:28:55.635Z,9.07
2023-04-12T19:31:23.999Z,9.05
2023-04-12T19:33:55.592Z,9.04
2023-04-12T19:36:24.637Z,9.04
2023-04-12T19:38:52.920Z,9.04
2023-04-12T19:41:21.713Z,9.03
2023-04-12T19:43:50.499Z,9.01
2023-04-12T19:46:18.704Z,8.99
2023-04-12T19:48:47.559Z,8.98
2023-04-12T19:51:15.809Z,8.95
2023-04-12T19:53:46.250Z,8.94
2023-04-12T19:56:15.144Z,8.94
2023-04-12T19:58:44.530Z,8.93
2023-04-12T20:01:13.855Z,8.92
2023-04-12T20:03:45.303Z,8.93
2023-04-12T20:06:13.267Z,8.90
2023-04-12T20:08:41.143Z,8.90
2023-04-12T20:11:09.063Z,8.89
2023-04-12T20:13:39.859Z,8.88
2023-04-12T20:16:09.950Z,8.88
2023-04-12T20:18:37.822Z,8.89
2023-04-12T20:21:08.315Z,8.88
2023-04-12T20:23:36.954Z,8.86
2023-04-12T20:26:05.656Z,8.85
2023-04-12T20:28:34.511Z,8.85
2023-04-12T20:31:02.836Z,8.84
2023-04-12T20:33:30.864Z,8.82
2023-04-12T20:35:59.611Z,8.83
2023-04-12T20:38:30.053Z,8.82
2023-04-12T20:41:01.485Z,8.84
2023-04-12T20:43:30.144Z,8.85
2023-04-12T20:45:57.959Z,8.86
2023-04-12T20:48:25.959Z,8.85
2023-04-12T20:50:56.252Z,8.87
2023-04-12T20:53:25.550Z,8.89
2023-04-12T20:55:54.878Z,8.89
2023-04-12T20:58:23.865Z,8.90
2023-04-12T21:00:52.476Z,8.92
2023-04-12T21:03:21.806Z,8.93
2023-04-12T21:05:50.994Z,8.95
2023-04-12T21:08:20.547Z,8.96
2023-04-12T21:10:48.614Z,8.97
2023-04-12T21:13:21.739Z,8.98
2023-04-12T21:15:50.483Z,9.01
2023-04-12T21:18:20.287Z,9.03
2023-04-12T21:20:48.533Z,9.06
2023-04-12T21:23:19.654Z,9.08
2023-04-12T21:25:50.938Z,9.09
2023-04-12T21:28:20.685Z,9.11
2023-04-12T21:30:54.804Z,9.11
2023-04-12T21:33:26.414Z,9.10
2023-04-12T21:35:54.779Z,9.10
2023-04-12T21:38:22.967Z,9.10
2023-04-12T21:40:51.275Z,9.07
2023-04-12T21:43:20.759Z,9.08
2023-04-12T21:45:48.649Z,9.08
2023-04-12T21:48:17.906Z,9.08
2023-04-12T21:50:45.959Z,9.07
2023-04-12T21:53:13.920Z,9.06
2023-04-12T21:55:42.678Z,9.06
2023-04-12T21:58:10.850Z,9.06
2023-04-12T22:00:41.727Z,9.08
2023-04-12T22:03:09.922Z,9.08
2023-04-12T22:06:00.782Z,9.10
2023-04-12T22:08:32.986Z,9.11
2023-04-12T22:11:01.420Z,9.13
2023-04-12T22:13:30.686Z,9.13
2023-04-12T22:16:00.678Z,9.13
2023-04-12T22:18:31.758Z,9.14
2023-04-12T22:21:04.063Z,9.14
2023-04-12T22:23:32.004Z,9.15
2023-04-12T22:25:59.787Z,9.15
2023-04-12T22:28:32.880Z,9.14
2023-04-12T22:31:02.280Z,9.12
2023-04-12T22:33:30.374Z,9.11
2023-04-12T22:36:02.113Z,9.09
2023-04-12T22:38:30.631Z,9.08
2023-04-12T22:41:02.111Z,9.07
2023-04-12T22:43:38.068Z,9.09
2023-04-12T22:46:06.418Z,9.10
2023-04-12T22:48:34.290Z,9.11
2023-04-12T22:51:04.326Z,9.11
2023-04-12T22:53:33.964Z,9.11
2023-04-12T22:56:01.940Z,9.11
2023-04-12T22:58:31.473Z,9.09
2023-04-12T23:00:59.290Z,9.08
2023-04-12T23:03:28.650Z,9.08
2023-04-12T23:05:56.782Z,9.07
2023-04-12T23:08:29.201Z,9.07
2023-04-12T23:11:04.658Z,9.06
2023-04-12T23:13:35.105Z,9.07
2023-04-12T23:16:05.702Z,9.06
2023-04-12T23:18:35.871Z,9.05
2023-04-12T23:21:03.928Z,9.03
2023-04-12T23:23:32.681Z,9.03
2023-04-12T23:26:00.964Z,9.03
2023-04-12T23:28:29.182Z,9.04
2023-04-12T23:31:02.828Z,9.03
2023-04-12T23:33:32.676Z,9.02
2023-04-12T23:36:04.986Z,9.04
2023-04-12T23:38:33.626Z,9.05
2023-04-12T23:41:02.506Z,9.05
2023-04-12T23:43:32.503Z,9.06
2023-04-12T23:46:02.251Z,9.08
2023-04-12T23:48:31.578Z,9.10
2023-04-12T23:50:59.898Z,9.11
2023-04-12T23:53:28.639Z,9.11
2023-04-12T23:55:56.663Z,9.10
2023-04-12T23:58:26.183Z,9.11
